sensor_id;sensor_type;location;lat;lon;timestamp;temperature;humidity
28358;DHT22;15605;48.114;11.522;2024-02-16T00:01:17;12.20;66.50
28358;DHT22;15605;48.114;11.522;2024-02-16T00:03:53;12.10;66.50
28358;DHT22;15605;48.114;11.522;2024-02-16T00:06:28;12.10;66.50
28358;DHT22;15605;48.114;11.522;2024-02-16T00:09:02;12.10;66.60
28358;DHT22;15605;48.114;11.522;2024-02-16T00:11:34;12.10;66.50
28358;DHT22;15605;48.114;11.522;2024-02-16T00:14:07;12.10;66.50
28358;DHT22;15605;48.114;11.522;2024-02-16T00:16:39;12.10;66.50
28358;DHT22;15605;48.114;11.522;2024-02-16T00:19:12;12.20;66.50
28358;DHT22;15605;48.114;11.522;2024-02-16T00:21:47;12.10;66.50
28358;DHT22;15605;48.114;11.522;2024-02-16T00:24:26;12.20;66.60
28358;DHT22;15605;48.114;11.522;2024-02-16T00:27:02;12.20;66.60
28358;DHT22;15605;48.114;11.522;2024-02-16T00:29:48;12.10;66.50
28358;DHT22;15605;48.114;11.522;2024-02-16T00:32:22;12.10;66.60
28358;DHT22;15605;48.114;11.522;2024-02-16T00:35:01;12.10;67.40
28358;DHT22;15605;48.114;11.522;2024-02-16T00:37:35;12.10;66.50
28358;DHT22;15605;48.114;11.522;2024-02-16T00:40:12;12.10;66.50
28358;DHT22;15605;48.114;11.522;2024-02-16T00:42:47;12.10;66.50
28358;DHT22;15605;48.114;11.522;2024-02-16T00:45:19;12.10;66.40
28358;DHT22;15605;48.114;11.522;2024-02-16T00:47:54;12.20;66.40
28358;DHT22;15605;48.114;11.522;2024-02-16T00:50:27;12.20;66.30
28358;DHT22;15605;48.114;11.522;2024-02-16T00:53:02;12.10;66.30
28358;DHT22;15605;48.114;11.522;2024-02-16T00:55:39;12.10;66.20
28358;DHT22;15605;48.114;11.522;2024-02-16T00:58:15;12.20;66.20
28358;DHT22;15605;48.114;11.522;2024-02-16T01:00:49;12.20;66.00
28358;DHT22;15605;48.114;11.522;2024-02-16T01:03:24;12.20;66.00
28358;DHT22;15605;48.114;11.522;2024-02-16T01:05:59;12.20;66.00
28358;DHT22;15605;48.114;11.522;2024-02-16T01:08:35;12.20;66.20
28358;DHT22;15605;48.114;11.522;2024-02-16T01:11:07;12.10;66.10
28358;DHT22;15605;48.114;11.522;2024-02-16T01:13:42;12.10;66.20
28358;DHT22;15605;48.114;11.522;2024-02-16T01:16:21;12.10;66.10
28358;DHT22;15605;48.114;11.522;2024-02-16T01:25:54;12.20;66.20
28358;DHT22;15605;48.114;11.522;2024-02-16T01:28:26;12.20;66.10
28358;DHT22;15605;48.114;11.522;2024-02-16T01:31:00;12.10;66.00
28358;DHT22;15605;48.114;11.522;2024-02-16T01:33:36;12.20;66.00
28358;DHT22;15605;48.114;11.522;2024-02-16T01:36:12;12.20;66.00
28358;DHT22;15605;48.114;11.522;2024-02-16T01:38:45;12.20;65.90
28358;DHT22;15605;48.114;11.522;2024-02-16T01:41:20;12.20;65.80
28358;DHT22;15605;48.114;11.522;2024-02-16T01:43:56;12.20;65.80
28358;DHT22;15605;48.114;11.522;2024-02-16T01:46:33;12.20;65.80
28358;DHT22;15605;48.114;11.522;2024-02-16T01:49:07;12.20;65.80
28358;DHT22;15605;48.114;11.522;2024-02-16T01:51:36;12.20;65.80
28358;DHT22;15605;48.114;11.522;2024-02-16T01:54:09;12.10;65.80
28358;DHT22;15605;48.114;11.522;2024-02-16T01:56:44;12.20;65.80
28358;DHT22;15605;48.114;11.522;2024-02-16T01:59:23;12.10;65.80
28358;DHT22;15605;48.114;11.522;2024-02-16T02:02:01;12.20;65.90
28358;DHT22;15605;48.114;11.522;2024-02-16T02:04:33;12.20;65.80
28358;DHT22;15605;48.114;11.522;2024-02-16T02:07:19;12.20;65.70
28358;DHT22;15605;48.114;11.522;2024-02-16T02:10:06;12.10;65.80
28358;DHT22;15605;48.114;11.522;2024-02-16T02:12:47;12.10;65.80
28358;DHT22;15605;48.114;11.522;2024-02-16T02:15:27;12.20;65.70
28358;DHT22;15605;48.114;11.522;2024-02-16T02:21:32;12.20;65.70
28358;DHT22;15605;48.114;11.522;2024-02-16T02:24:09;12.20;65.70
28358;DHT22;15605;48.114;11.522;2024-02-16T02:26:43;12.20;65.70
28358;DHT22;15605;48.114;11.522;2024-02-16T02:29:20;12.20;65.70
28358;DHT22;15605;48.114;11.522;2024-02-16T02:31:57;12.20;65.70
28358;DHT22;15605;48.114;11.522;2024-02-16T02:34:31;12.20;65.50
28358;DHT22;15605;48.114;11.522;2024-02-16T02:37:07;12.20;65.60
28358;DHT22;15605;48.114;11.522;2024-02-16T02:39:45;12.20;65.60
28358;DHT22;15605;48.114;11.522;2024-02-16T02:42:21;12.20;65.50
28358;DHT22;15605;48.114;11.522;2024-02-16T02:44:56;12.20;66.30
28358;DHT22;15605;48.114;11.522;2024-02-16T02:47:30;12.10;65.50
28358;DHT22;15605;48.114;11.522;2024-02-16T02:50:06;12.20;65.70
28358;DHT22;15605;48.114;11.522;2024-02-16T02:52:41;12.10;65.60
28358;DHT22;15605;48.114;11.522;2024-02-16T02:55:15;12.20;65.50
28358;DHT22;15605;48.114;11.522;2024-02-16T02:57:49;12.20;65.40
28358;DHT22;15605;48.114;11.522;2024-02-16T03:00:24;12.20;65.40
28358;DHT22;15605;48.114;11.522;2024-02-16T03:02:59;12.10;65.40
28358;DHT22;15605;48.114;11.522;2024-02-16T03:05:36;12.20;65.40
28358;DHT22;15605;48.114;11.522;2024-02-16T03:08:14;12.20;65.30
28358;DHT22;15605;48.114;11.522;2024-02-16T03:10:46;12.20;65.30
28358;DHT22;15605;48.114;11.522;2024-02-16T03:13:26;12.20;65.30
28358;DHT22;15605;48.114;11.522;2024-02-16T03:16:00;12.20;65.30
28358;DHT22;15605;48.114;11.522;2024-02-16T03:18:37;12.20;65.30
28358;DHT22;15605;48.114;11.522;2024-02-16T03:21:15;12.20;65.30
28358;DHT22;15605;48.114;11.522;2024-02-16T03:23:53;12.20;65.20
28358;DHT22;15605;48.114;11.522;2024-02-16T03:26:26;12.20;65.10
28358;DHT22;15605;48.114;11.522;2024-02-16T03:28:58;12.20;65.10
28358;DHT22;15605;48.114;11.522;2024-02-16T03:31:28;12.20;65.20
28358;DHT22;15605;48.114;11.522;2024-02-16T03:34:04;12.20;65.20
28358;DHT22;15605;48.114;11.522;2024-02-16T03:36:42;12.20;65.20
28358;DHT22;15605;48.114;11.522;2024-02-16T03:39:21;12.20;65.20
28358;DHT22;15605;48.114;11.522;2024-02-16T03:41:54;12.20;65.90
28358;DHT22;15605;48.114;11.522;2024-02-16T03:44:29;12.20;65.10
28358;DHT22;15605;48.114;11.522;2024-02-16T03:47:02;12.20;65.10
28358;DHT22;15605;48.114;11.522;2024-02-16T03:49:37;12.30;65.00
28358;DHT22;15605;48.114;11.522;2024-02-16T03:52:11;12.20;64.80
28358;DHT22;15605;48.114;11.522;2024-02-16T03:54:47;12.20;64.70
28358;DHT22;15605;48.114;11.522;2024-02-16T03:57:21;12.20;64.60
28358;DHT22;15605;48.114;11.522;2024-02-16T03:59:54;12.30;64.50
28358;DHT22;15605;48.114;11.522;2024-02-16T04:02:24;12.30;64.50
28358;DHT22;15605;48.114;11.522;2024-02-16T04:04:56;12.20;64.50
28358;DHT22;15605;48.114;11.522;2024-02-16T04:07:40;12.20;64.60
28358;DHT22;15605;48.114;11.522;2024-02-16T04:10:22;12.20;64.60
28358;DHT22;15605;48.114;11.522;2024-02-16T04:13:00;12.20;64.70
28358;DHT22;15605;48.114;11.522;2024-02-16T04:15:39;12.20;64.70
28358;DHT22;15605;48.114;11.522;2024-02-16T04:18:16;12.20;64.70
28358;DHT22;15605;48.114;11.522;2024-02-16T04:21:01;12.20;64.60
28358;DHT22;15605;48.114;11.522;2024-02-16T04:23:37;12.20;64.60
28358;DHT22;15605;48.114;11.522;2024-02-16T04:26:08;12.20;64.60
28358;DHT22;15605;48.114;11.522;2024-02-16T04:28:40;12.20;64.40
28358;DHT22;15605;48.114;11.522;2024-02-16T04:31:14;12.20;64.50
28358;DHT22;15605;48.114;11.522;2024-02-16T04:33:47;12.20;64.60
28358;DHT22;15605;48.114;11.522;2024-02-16T04:36:23;12.20;64.70
28358;DHT22;15605;48.114;11.522;2024-02-16T04:38:56;12.20;64.70
28358;DHT22;15605;48.114;11.522;2024-02-16T04:41:32;12.20;64.80
28358;DHT22;15605;48.114;11.522;2024-02-16T04:44:13;12.20;64.70
28358;DHT22;15605;48.114;11.522;2024-02-16T04:46:56;12.20;64.60
28358;DHT22;15605;48.114;11.522;2024-02-16T04:49:38;12.20;64.50
28358;DHT22;15605;48.114;11.522;2024-02-16T04:52:17;12.20;64.50
28358;DHT22;15605;48.114;11.522;2024-02-16T04:54:52;12.20;64.50
28358;DHT22;15605;48.114;11.522;2024-02-16T04:57:32;12.20;64.50
28358;DHT22;15605;48.114;11.522;2024-02-16T05:00:06;12.20;64.50
28358;DHT22;15605;48.114;11.522;2024-02-16T05:02:39;12.20;64.50
28358;DHT22;15605;48.114;11.522;2024-02-16T05:05:22;12.20;64.40
28358;DHT22;15605;48.114;11.522;2024-02-16T05:07:54;12.20;64.50
28358;DHT22;15605;48.114;11.522;2024-02-16T05:10:27;12.20;64.50
28358;DHT22;15605;48.114;11.522;2024-02-16T05:13:08;12.20;64.40
28358;DHT22;15605;48.114;11.522;2024-02-16T05:15:58;12.20;64.40
28358;DHT22;15605;48.114;11.522;2024-02-16T05:18:32;12.20;64.40
28358;DHT22;15605;48.114;11.522;2024-02-16T05:21:26;12.20;64.40
28358;DHT22;15605;48.114;11.522;2024-02-16T05:23:59;12.20;64.50
28358;DHT22;15605;48.114;11.522;2024-02-16T05:26:32;12.20;64.40
28358;DHT22;15605;48.114;11.522;2024-02-16T05:29:16;12.20;64.30
28358;DHT22;15605;48.114;11.522;2024-02-16T05:31:54;12.20;64.50
28358;DHT22;15605;48.114;11.522;2024-02-16T05:34:35;12.20;64.40
28358;DHT22;15605;48.114;11.522;2024-02-16T05:37:18;12.20;64.40
28358;DHT22;15605;48.114;11.522;2024-02-16T05:39:53;12.20;64.30
28358;DHT22;15605;48.114;11.522;2024-02-16T05:42:43;12.20;64.30
28358;DHT22;15605;48.114;11.522;2024-02-16T05:45:30;12.20;64.30
28358;DHT22;15605;48.114;11.522;2024-02-16T05:48:04;12.20;64.50
28358;DHT22;15605;48.114;11.522;2024-02-16T05:50:39;12.20;64.50
28358;DHT22;15605;48.114;11.522;2024-02-16T05:53:23;12.20;64.50
28358;DHT22;15605;48.114;11.522;2024-02-16T05:56:03;12.20;64.40
28358;DHT22;15605;48.114;11.522;2024-02-16T05:58:40;12.20;64.40
28358;DHT22;15605;48.114;11.522;2024-02-16T06:01:16;12.20;64.40
28358;DHT22;15605;48.114;11.522;2024-02-16T06:03:46;12.20;64.60
28358;DHT22;15605;48.114;11.522;2024-02-16T06:06:31;12.10;64.50
28358;DHT22;15605;48.114;11.522;2024-02-16T06:09:01;12.10;64.40
28358;DHT22;15605;48.114;11.522;2024-02-16T06:11:37;12.20;64.20
28358;DHT22;15605;48.114;11.522;2024-02-16T06:14:10;12.10;64.00
28358;DHT22;15605;48.114;11.522;2024-02-16T06:16:40;12.20;63.80
28358;DHT22;15605;48.114;11.522;2024-02-16T06:19:31;12.20;63.60
28358;DHT22;15605;48.114;11.522;2024-02-16T06:22:08;12.20;63.50
28358;DHT22;15605;48.114;11.522;2024-02-16T06:24:44;12.20;63.50
28358;DHT22;15605;48.114;11.522;2024-02-16T06:27:16;12.20;63.40
28358;DHT22;15605;48.114;11.522;2024-02-16T06:29:51;12.20;63.40
28358;DHT22;15605;48.114;11.522;2024-02-16T06:32:24;12.20;63.30
28358;DHT22;15605;48.114;11.522;2024-02-16T06:34:57;12.20;63.20
28358;DHT22;15605;48.114;11.522;2024-02-16T06:37:28;12.20;63.10
28358;DHT22;15605;48.114;11.522;2024-02-16T06:40:02;12.20;63.10
28358;DHT22;15605;48.114;11.522;2024-02-16T06:42:38;12.20;63.00
28358;DHT22;15605;48.114;11.522;2024-02-16T06:45:11;12.20;63.10
28358;DHT22;15605;48.114;11.522;2024-02-16T06:47:51;12.20;63.10
28358;DHT22;15605;48.114;11.522;2024-02-16T06:50:22;12.20;63.30
28358;DHT22;15605;48.114;11.522;2024-02-16T06:53:00;12.20;63.30
28358;DHT22;15605;48.114;11.522;2024-02-16T06:55:37;12.20;63.20
28358;DHT22;15605;48.114;11.522;2024-02-16T06:58:09;12.20;63.20
28358;DHT22;15605;48.114;11.522;2024-02-16T07:00:46;12.20;63.20
28358;DHT22;15605;48.114;11.522;2024-02-16T07:03:18;12.20;63.40
28358;DHT22;15605;48.114;11.522;2024-02-16T07:05:52;12.20;63.30
28358;DHT22;15605;48.114;11.522;2024-02-16T07:08:24;12.20;63.40
28358;DHT22;15605;48.114;11.522;2024-02-16T07:10:56;12.30;63.40
28358;DHT22;15605;48.114;11.522;2024-02-16T07:13:37;12.30;63.40
28358;DHT22;15605;48.114;11.522;2024-02-16T07:16:08;12.30;63.40
28358;DHT22;15605;48.114;11.522;2024-02-16T07:18:50;12.30;63.60
28358;DHT22;15605;48.114;11.522;2024-02-16T07:21:28;12.30;63.70
28358;DHT22;15605;48.114;11.522;2024-02-16T07:24:02;12.30;63.70
28358;DHT22;15605;48.114;11.522;2024-02-16T07:26:36;12.30;63.70
28358;DHT22;15605;48.114;11.522;2024-02-16T07:29:13;12.30;63.80
28358;DHT22;15605;48.114;11.522;2024-02-16T07:31:48;12.20;63.90
28358;DHT22;15605;48.114;11.522;2024-02-16T07:34:23;12.20;63.90
28358;DHT22;15605;48.114;11.522;2024-02-16T07:36:57;12.20;64.00
28358;DHT22;15605;48.114;11.522;2024-02-16T07:39:41;12.20;64.00
28358;DHT22;15605;48.114;11.522;2024-02-16T07:42:14;12.20;64.10
28358;DHT22;15605;48.114;11.522;2024-02-16T07:44:46;12.20;64.00
28358;DHT22;15605;48.114;11.522;2024-02-16T07:47:16;12.20;64.00
28358;DHT22;15605;48.114;11.522;2024-02-16T07:49:51;12.20;63.90
28358;DHT22;15605;48.114;11.522;2024-02-16T07:52:23;12.20;63.90
28358;DHT22;15605;48.114;11.522;2024-02-16T07:54:55;12.30;63.90
28358;DHT22;15605;48.114;11.522;2024-02-16T07:57:27;12.30;63.90
28358;DHT22;15605;48.114;11.522;2024-02-16T08:00:02;12.20;63.90
28358;DHT22;15605;48.114;11.522;2024-02-16T08:02:32;12.20;64.10
28358;DHT22;15605;48.114;11.522;2024-02-16T08:05:09;12.20;64.10
28358;DHT22;15605;48.114;11.522;2024-02-16T08:07:42;12.30;64.00
28358;DHT22;15605;48.114;11.522;2024-02-16T08:10:21;12.20;63.90
28358;DHT22;15605;48.114;11.522;2024-02-16T08:12:57;12.30;63.80
28358;DHT22;15605;48.114;11.522;2024-02-16T08:15:28;12.30;63.90
28358;DHT22;15605;48.114;11.522;2024-02-16T08:18:00;12.30;63.80
28358;DHT22;15605;48.114;11.522;2024-02-16T08:20:33;12.30;63.60
28358;DHT22;15605;48.114;11.522;2024-02-16T08:23:25;12.40;63.60
28358;DHT22;15605;48.114;11.522;2024-02-16T08:26:00;12.30;63.70
28358;DHT22;15605;48.114;11.522;2024-02-16T08:28:48;12.40;63.80
28358;DHT22;15605;48.114;11.522;2024-02-16T08:31:22;12.30;63.80
28358;DHT22;15605;48.114;11.522;2024-02-16T08:33:54;12.30;63.80
28358;DHT22;15605;48.114;11.522;2024-02-16T08:36:27;12.30;63.70
28358;DHT22;15605;48.114;11.522;2024-02-16T08:38:59;12.30;63.70
28358;DHT22;15605;48.114;11.522;2024-02-16T08:41:31;12.30;63.60
28358;DHT22;15605;48.114;11.522;2024-02-16T08:44:03;12.40;63.70
28358;DHT22;15605;48.114;11.522;2024-02-16T08:46:42;12.30;63.70
28358;DHT22;15605;48.114;11.522;2024-02-16T08:49:28;12.30;63.80
28358;DHT22;15605;48.114;11.522;2024-02-16T08:52:08;12.40;63.70
28358;DHT22;15605;48.114;11.522;2024-02-16T08:54:58;12.40;63.60
28358;DHT22;15605;48.114;11.522;2024-02-16T08:57:36;12.40;63.60
28358;DHT22;15605;48.114;11.522;2024-02-16T09:00:14;12.30;63.70
28358;DHT22;15605;48.114;11.522;2024-02-16T09:02:46;12.40;63.60
28358;DHT22;15605;48.114;11.522;2024-02-16T09:05:18;12.40;63.60
28358;DHT22;15605;48.114;11.522;2024-02-16T09:08:15;12.40;63.60
28358;DHT22;15605;48.114;11.522;2024-02-16T09:10:48;12.40;63.60
28358;DHT22;15605;48.114;11.522;2024-02-16T09:13:20;12.40;63.60
28358;DHT22;15605;48.114;11.522;2024-02-16T09:16:04;12.40;63.70
28358;DHT22;15605;48.114;11.522;2024-02-16T09:18:40;12.40;63.70
28358;DHT22;15605;48.114;11.522;2024-02-16T09:21:20;12.40;63.70
28358;DHT22;15605;48.114;11.522;2024-02-16T09:24:05;12.30;63.80
28358;DHT22;15605;48.114;11.522;2024-02-16T09:26:43;12.30;63.70
28358;DHT22;15605;48.114;11.522;2024-02-16T09:29:19;12.40;63.70
28358;DHT22;15605;48.114;11.522;2024-02-16T09:31:58;12.40;63.70
28358;DHT22;15605;48.114;11.522;2024-02-16T09:34:37;12.40;63.70
28358;DHT22;15605;48.114;11.522;2024-02-16T09:37:26;12.40;63.80
28358;DHT22;15605;48.114;11.522;2024-02-16T09:40:39;12.40;63.80
28358;DHT22;15605;48.114;11.522;2024-02-16T09:43:22;12.40;63.80
28358;DHT22;15605;48.114;11.522;2024-02-16T09:46:02;12.40;63.80
28358;DHT22;15605;48.114;11.522;2024-02-16T09:49:21;12.50;63.80
28358;DHT22;15605;48.114;11.522;2024-02-16T09:52:00;12.50;63.60
28358;DHT22;15605;48.114;11.522;2024-02-16T09:54:36;12.50;63.50
28358;DHT22;15605;48.114;11.522;2024-02-16T09:57:14;12.50;63.50
28358;DHT22;15605;48.114;11.522;2024-02-16T10:00:11;12.50;63.60
28358;DHT22;15605;48.114;11.522;2024-02-16T10:02:46;12.40;63.70
28358;DHT22;15605;48.114;11.522;2024-02-16T10:05:26;12.50;63.60
28358;DHT22;15605;48.114;11.522;2024-02-16T10:08:12;12.50;63.60
28358;DHT22;15605;48.114;11.522;2024-02-16T10:10:43;12.50;63.50
28358;DHT22;15605;48.114;11.522;2024-02-16T10:13:34;12.50;63.60
28358;DHT22;15605;48.114;11.522;2024-02-16T10:16:09;12.50;63.60
28358;DHT22;15605;48.114;11.522;2024-02-16T10:19:09;12.40;63.50
28358;DHT22;15605;48.114;11.522;2024-02-16T10:21:54;12.50;63.60
28358;DHT22;15605;48.114;11.522;2024-02-16T10:24:44;12.50;63.50
28358;DHT22;15605;48.114;11.522;2024-02-16T10:27:26;12.50;63.60
28358;DHT22;15605;48.114;11.522;2024-02-16T10:30:06;12.50;63.60
28358;DHT22;15605;48.114;11.522;2024-02-16T10:32:40;12.50;63.50
28358;DHT22;15605;48.114;11.522;2024-02-16T10:35:11;12.50;63.50
28358;DHT22;15605;48.114;11.522;2024-02-16T10:37:47;12.50;63.60
28358;DHT22;15605;48.114;11.522;2024-02-16T10:40:34;12.50;63.50
28358;DHT22;15605;48.114;11.522;2024-02-16T10:43:26;12.50;63.50
28358;DHT22;15605;48.114;11.522;2024-02-16T10:46:02;12.40;63.60
28358;DHT22;15605;48.114;11.522;2024-02-16T10:48:40;12.50;63.60
28358;DHT22;15605;48.114;11.522;2024-02-16T10:51:13;12.50;63.60
28358;DHT22;15605;48.114;11.522;2024-02-16T10:53:51;12.50;63.60
28358;DHT22;15605;48.114;11.522;2024-02-16T10:56:38;12.40;63.60
28358;DHT22;15605;48.114;11.522;2024-02-16T10:59:20;12.40;63.80
28358;DHT22;15605;48.114;11.522;2024-02-16T11:02:02;12.50;63.60
28358;DHT22;15605;48.114;11.522;2024-02-16T11:04:39;12.50;63.60
28358;DHT22;15605;48.114;11.522;2024-02-16T11:07:11;12.50;63.50
28358;DHT22;15605;48.114;11.522;2024-02-16T11:09:43;12.50;63.60
28358;DHT22;15605;48.114;11.522;2024-02-16T11:12:32;12.50;63.50
28358;DHT22;15605;48.114;11.522;2024-02-16T11:15:09;12.40;63.60
28358;DHT22;15605;48.114;11.522;2024-02-16T11:17:43;12.40;63.60
28358;DHT22;15605;48.114;11.522;2024-02-16T11:20:15;12.40;63.70
28358;DHT22;15605;48.114;11.522;2024-02-16T11:22:51;12.40;63.70
28358;DHT22;15605;48.114;11.522;2024-02-16T11:25:33;12.40;63.80
28358;DHT22;15605;48.114;11.522;2024-02-16T11:28:09;12.40;63.70
28358;DHT22;15605;48.114;11.522;2024-02-16T11:30:40;12.30;63.80
28358;DHT22;15605;48.114;11.522;2024-02-16T11:33:12;12.40;63.90
28358;DHT22;15605;48.114;11.522;2024-02-16T11:36:11;12.40;63.70
28358;DHT22;15605;48.114;11.522;2024-02-16T11:38:48;12.40;63.70
28358;DHT22;15605;48.114;11.522;2024-02-16T11:41:20;12.40;63.70
28358;DHT22;15605;48.114;11.522;2024-02-16T11:43:58;12.40;63.70
28358;DHT22;15605;48.114;11.522;2024-02-16T11:46:31;12.40;63.60
28358;DHT22;15605;48.114;11.522;2024-02-16T11:49:07;12.40;63.70
28358;DHT22;15605;48.114;11.522;2024-02-16T11:51:42;12.40;63.70
28358;DHT22;15605;48.114;11.522;2024-02-16T11:54:14;12.40;63.60
28358;DHT22;15605;48.114;11.522;2024-02-16T11:56:52;12.40;63.50
28358;DHT22;15605;48.114;11.522;2024-02-16T11:59:23;12.40;63.60
28358;DHT22;15605;48.114;11.522;2024-02-16T12:01:53;12.50;63.50
28358;DHT22;15605;48.114;11.522;2024-02-16T12:04:24;12.40;63.50
28358;DHT22;15605;48.114;11.522;2024-02-16T12:06:59;12.40;63.60
28358;DHT22;15605;48.114;11.522;2024-02-16T12:09:30;12.40;63.60
28358;DHT22;15605;48.114;11.522;2024-02-16T12:12:04;12.40;63.60
28358;DHT22;15605;48.114;11.522;2024-02-16T12:14:35;12.40;63.70
28358;DHT22;15605;48.114;11.522;2024-02-16T12:17:09;12.40;63.60
28358;DHT22;15605;48.114;11.522;2024-02-16T12:19:50;12.40;63.60
28358;DHT22;15605;48.114;11.522;2024-02-16T12:22:28;12.40;63.60
28358;DHT22;15605;48.114;11.522;2024-02-16T12:25:00;12.40;63.60
28358;DHT22;15605;48.114;11.522;2024-02-16T12:27:38;12.40;63.60
28358;DHT22;15605;48.114;11.522;2024-02-16T12:30:13;12.40;63.50
28358;DHT22;15605;48.114;11.522;2024-02-16T12:32:45;12.50;63.50
28358;DHT22;15605;48.114;11.522;2024-02-16T12:35:16;12.40;63.40
28358;DHT22;15605;48.114;11.522;2024-02-16T12:37:53;12.40;63.40
28358;DHT22;15605;48.114;11.522;2024-02-16T12:40:23;12.50;63.40
28358;DHT22;15605;48.114;11.522;2024-02-16T12:42:56;12.40;63.50
28358;DHT22;15605;48.114;11.522;2024-02-16T12:45:27;12.40;63.50
28358;DHT22;15605;48.114;11.522;2024-02-16T12:47:59;12.40;63.50
28358;DHT22;15605;48.114;11.522;2024-02-16T12:50:31;12.40;63.50
28358;DHT22;15605;48.114;11.522;2024-02-16T12:53:04;12.40;63.50
28358;DHT22;15605;48.114;11.522;2024-02-16T12:55:35;12.40;63.50
28358;DHT22;15605;48.114;11.522;2024-02-16T12:58:07;12.40;63.50
28358;DHT22;15605;48.114;11.522;2024-02-16T13:00:38;12.50;63.60
28358;DHT22;15605;48.114;11.522;2024-02-16T13:03:08;12.40;63.40
28358;DHT22;15605;48.114;11.522;2024-02-16T13:05:39;12.40;63.40
28358;DHT22;15605;48.114;11.522;2024-02-16T13:08:11;12.50;63.50
28358;DHT22;15605;48.114;11.522;2024-02-16T13:10:42;12.50;63.40
28358;DHT22;15605;48.114;11.522;2024-02-16T13:13:14;12.40;63.50
28358;DHT22;15605;48.114;11.522;2024-02-16T13:15:46;12.40;63.40
28358;DHT22;15605;48.114;11.522;2024-02-16T13:18:22;12.40;63.50
28358;DHT22;15605;48.114;11.522;2024-02-16T13:20:53;12.50;63.30
28358;DHT22;15605;48.114;11.522;2024-02-16T13:23:28;12.40;63.30
28358;DHT22;15605;48.114;11.522;2024-02-16T13:26:04;12.50;63.30
28358;DHT22;15605;48.114;11.522;2024-02-16T13:28:37;12.40;63.40
28358;DHT22;15605;48.114;11.522;2024-02-16T13:31:09;12.50;63.30
28358;DHT22;15605;48.114;11.522;2024-02-16T13:33:40;12.40;63.40
28358;DHT22;15605;48.114;11.522;2024-02-16T13:36:13;12.50;63.40
28358;DHT22;15605;48.114;11.522;2024-02-16T13:38:47;12.50;63.30
28358;DHT22;15605;48.114;11.522;2024-02-16T13:41:36;12.50;63.30
28358;DHT22;15605;48.114;11.522;2024-02-16T13:44:17;12.40;63.40
28358;DHT22;15605;48.114;11.522;2024-02-16T13:46:52;12.40;63.50
28358;DHT22;15605;48.114;11.522;2024-02-16T13:49:33;12.50;63.50
28358;DHT22;15605;48.114;11.522;2024-02-16T13:52:04;12.40;63.50
28358;DHT22;15605;48.114;11.522;2024-02-16T13:54:46;12.40;63.50
28358;DHT22;15605;48.114;11.522;2024-02-16T13:57:34;12.40;63.50
28358;DHT22;15605;48.114;11.522;2024-02-16T14:00:05;12.40;63.50
28358;DHT22;15605;48.114;11.522;2024-02-16T14:02:44;12.40;63.60
28358;DHT22;15605;48.114;11.522;2024-02-16T14:05:16;12.40;63.60
28358;DHT22;15605;48.114;11.522;2024-02-16T14:07:47;12.50;63.50
28358;DHT22;15605;48.114;11.522;2024-02-16T14:10:19;12.50;63.60
28358;DHT22;15605;48.114;11.522;2024-02-16T14:12:52;12.50;63.40
28358;DHT22;15605;48.114;11.522;2024-02-16T14:15:27;12.50;63.30
28358;DHT22;15605;48.114;11.522;2024-02-16T14:18:00;12.50;63.40
28358;DHT22;15605;48.114;11.522;2024-02-16T14:20:32;12.50;63.30
28358;DHT22;15605;48.114;11.522;2024-02-16T14:23:03;12.50;63.40
28358;DHT22;15605;48.114;11.522;2024-02-16T14:25:39;12.50;63.30
28358;DHT22;15605;48.114;11.522;2024-02-16T14:28:12;12.50;63.30
28358;DHT22;15605;48.114;11.522;2024-02-16T14:30:45;12.50;63.40
28358;DHT22;15605;48.114;11.522;2024-02-16T14:33:18;12.40;63.50
28358;DHT22;15605;48.114;11.522;2024-02-16T14:35:49;12.40;63.50
28358;DHT22;15605;48.114;11.522;2024-02-16T14:38:38;12.50;63.50
28358;DHT22;15605;48.114;11.522;2024-02-16T14:41:27;12.50;63.60
28358;DHT22;15605;48.114;11.522;2024-02-16T14:43:58;12.50;63.50
28358;DHT22;15605;48.114;11.522;2024-02-16T14:46:34;12.50;63.60
28358;DHT22;15605;48.114;11.522;2024-02-16T14:49:26;12.40;63.50
28358;DHT22;15605;48.114;11.522;2024-02-16T14:52:00;12.40;63.90
28358;DHT22;15605;48.114;11.522;2024-02-16T14:54:31;12.40;64.10
28358;DHT22;15605;48.114;11.522;2024-02-16T14:57:03;12.50;64.60
28358;DHT22;15605;48.114;11.522;2024-02-16T14:59:36;12.50;65.30
28358;DHT22;15605;48.114;11.522;2024-02-16T15:02:06;12.50;65.50
28358;DHT22;15605;48.114;11.522;2024-02-16T15:04:50;12.50;65.50
28358;DHT22;15605;48.114;11.522;2024-02-16T15:07:21;12.60;65.90
28358;DHT22;15605;48.114;11.522;2024-02-16T15:10:08;12.60;66.10
28358;DHT22;15605;48.114;11.522;2024-02-16T15:12:41;12.60;66.00
28358;DHT22;15605;48.114;11.522;2024-02-16T15:15:10;12.60;66.50
28358;DHT22;15605;48.114;11.522;2024-02-16T15:17:40;12.70;66.60
28358;DHT22;15605;48.114;11.522;2024-02-16T15:20:11;12.70;66.80
28358;DHT22;15605;48.114;11.522;2024-02-16T15:22:55;12.70;67.10
28358;DHT22;15605;48.114;11.522;2024-02-16T15:25:52;12.70;67.00
28358;DHT22;15605;48.114;11.522;2024-02-16T15:28:33;12.70;67.00
28358;DHT22;15605;48.114;11.522;2024-02-16T15:31:05;12.70;67.00
28358;DHT22;15605;48.114;11.522;2024-02-16T15:33:34;12.70;67.20
28358;DHT22;15605;48.114;11.522;2024-02-16T15:36:04;12.80;67.10
28358;DHT22;15605;48.114;11.522;2024-02-16T15:38:36;12.80;67.20
28358;DHT22;15605;48.114;11.522;2024-02-16T15:41:06;12.80;67.30
28358;DHT22;15605;48.114;11.522;2024-02-16T15:43:37;12.80;67.40
28358;DHT22;15605;48.114;11.522;2024-02-16T15:46:16;12.80;67.40
28358;DHT22;15605;48.114;11.522;2024-02-16T15:48:46;12.80;67.60
28358;DHT22;15605;48.114;11.522;2024-02-16T15:51:24;12.80;67.60
28358;DHT22;15605;48.114;11.522;2024-02-16T15:53:57;12.80;67.60
28358;DHT22;15605;48.114;11.522;2024-02-16T15:56:29;12.80;67.60
28358;DHT22;15605;48.114;11.522;2024-02-16T16:02:32;12.80;67.60
28358;DHT22;15605;48.114;11.522;2024-02-16T16:05:04;12.80;67.60
28358;DHT22;15605;48.114;11.522;2024-02-16T16:07:40;12.80;67.60
28358;DHT22;15605;48.114;11.522;2024-02-16T16:10:56;12.80;67.80
28358;DHT22;15605;48.114;11.522;2024-02-16T16:13:34;12.80;67.90
28358;DHT22;15605;48.114;11.522;2024-02-16T16:16:08;12.80;68.00
28358;DHT22;15605;48.114;11.522;2024-02-16T16:18:43;12.80;68.00
28358;DHT22;15605;48.114;11.522;2024-02-16T16:21:57;12.70;67.90
28358;DHT22;15605;48.114;11.522;2024-02-16T16:24:30;12.70;68.10
28358;DHT22;15605;48.114;11.522;2024-02-16T16:27:12;12.70;68.10